Time;durP1;ratioP1;P1;durP2;ratioP2;P2;SDS_P1;SDS_P2;PMS_P1;PMS_P2;Temp;Humidity;BMP_temperature;BMP_pressure;BME280_temperature;BME280_humidity;BME280_pressure;Samples;Min_cycle;Max_cycle;Signal;HPM_P1;HPM_P2
2021/09/08 00:01:01;;;;;;;22.45;9.30;;;13.30;99.90;;;;;;5044960;28;20029;-60
2021/09/08 00:03:27;;;;;;;21.70;9.77;;;13.20;99.90;;;;;;5041665;28;21458;-61
2021/09/08 00:05:54;;;;;;;18.27;8.70;;;13.20;99.90;;;;;;5043681;28;20364;-61
2021/09/08 00:08:20;;;;;;;18.38;8.95;;;13.30;99.90;;;;;;5045822;28;20112;-60
2021/09/08 00:10:45;;;;;;;18.45;8.63;;;13.20;99.90;;;;;;5050510;28;20031;-60
2021/09/08 00:13:11;;;;;;;20.35;9.57;;;13.30;99.90;;;;;;5048893;28;20021;-61
2021/09/08 00:15:37;;;;;;;19.27;9.10;;;13.40;99.90;;;;;;5050812;28;20384;-61
2021/09/08 00:18:02;;;;;;;20.27;9.05;;;13.20;99.90;;;;;;5046107;28;20049;-61
2021/09/08 00:20:28;;;;;;;21.50;10.15;;;13.20;99.90;;;;;;5051146;28;20116;-61
2021/09/08 00:22:55;;;;;;;22.70;9.25;;;13.30;99.90;;;;;;5050470;28;20130;-60
2021/09/08 00:25:20;;;;;;;17.80;8.95;;;13.30;99.90;;;;;;5050163;28;20441;-60
2021/09/08 00:27:46;;;;;;;21.80;9.63;;;13.40;99.90;;;;;;5047799;28;20370;-61
2021/09/08 00:30:12;;;;;;;18.63;9.45;;;13.60;99.90;;;;;;5048675;28;20099;-60
2021/09/08 00:32:39;;;;;;;19.23;9.35;;;13.40;99.90;;;;;;5046721;28;20039;-61
2021/09/08 00:35:05;;;;;;;22.27;9.75;;;13.50;99.90;;;;;;5048091;28;20029;-60
2021/09/08 00:37:31;;;;;;;22.27;10.02;;;13.50;99.90;;;;;;5044933;28;20073;-60
2021/09/08 00:39:57;;;;;;;21.30;10.07;;;13.80;99.90;;;;;;5045332;28;20075;-61
2021/09/08 00:42:22;;;;;;;19.40;10.15;;;13.50;99.90;;;;;;5050258;28;20048;-61
2021/09/08 00:44:48;;;;;;;18.67;9.05;;;13.30;99.90;;;;;;5042277;28;20040;-61
2021/09/08 00:47:15;;;;;;;20.75;9.98;;;13.20;99.90;;;;;;5048112;28;20032;-60
2021/09/08 00:49:42;;;;;;;23.60;10.00;;;13.30;99.90;;;;;;5045043;28;20036;-61
2021/09/08 00:52:10;;;;;;;22.85;10.38;;;13.20;99.90;;;;;;5049095;28;20349;-61
2021/09/08 00:54:36;;;;;;;20.48;9.80;;;13.40;99.90;;;;;;5046662;28;20013;-61
2021/09/08 00:57:04;;;;;;;22.70;9.90;;;13.60;99.90;;;;;;5050181;28;20021;-60
2021/09/08 00:59:32;;;;;;;20.08;10.32;;;13.30;99.90;;;;;;5047407;28;20534;-61
2021/09/08 01:02:00;;;;;;;21.67;9.70;;;13.00;99.90;;;;;;5047738;28;20836;-61
2021/09/08 01:04:26;;;;;;;20.90;10.13;;;13.20;99.90;;;;;;5049388;28;20017;-61
2021/09/08 01:06:52;;;;;;;20.67;9.93;;;13.20;99.90;;;;;;5049975;28;20104;-60
2021/09/08 01:09:17;;;;;;;22.10;10.93;;;13.10;99.90;;;;;;5049401;28;20588;-61
2021/09/08 01:11:43;;;;;;;20.48;10.02;;;13.20;99.90;;;;;;5049964;28;20477;-61
2021/09/08 01:14:09;;;;;;;21.52;10.23;;;13.30;99.90;;;;;;5048015;28;20029;-60
2021/09/08 01:16:34;;;;;;;21.08;10.27;;;13.30;99.90;;;;;;5044981;28;20036;-61
2021/09/08 01:19:00;;;;;;;20.58;9.75;;;13.00;99.90;;;;;;5045845;28;20064;-61
2021/09/08 01:21:26;;;;;;;21.10;10.55;;;13.20;99.90;;;;;;5040629;28;20040;-61
2021/09/08 01:23:51;;;;;;;27.42;9.80;;;13.00;99.90;;;;;;5049271;28;20064;-61
2021/09/08 01:26:17;;;;;;;22.55;9.85;;;13.00;99.90;;;;;;5048715;28;20025;-61
2021/09/08 01:28:43;;;;;;;21.33;9.85;;;12.90;99.90;;;;;;5042575;28;20454;-61
2021/09/08 01:31:08;;;;;;;22.45;10.05;;;12.80;99.90;;;;;;5048330;28;20040;-61
2021/09/08 01:33:35;;;;;;;23.45;10.98;;;12.70;99.90;;;;;;5043305;28;20028;-61
2021/09/08 01:36:01;;;;;;;24.60;10.75;;;12.60;99.90;;;;;;5045863;28;20105;-61
2021/09/08 01:38:27;;;;;;;23.20;11.02;;;12.50;99.90;;;;;;5048914;28;20028;-60
2021/09/08 01:40:53;;;;;;;21.17;10.60;;;12.50;99.90;;;;;;5048369;28;20416;-60
2021/09/08 01:43:25;;;;;;;23.90;10.65;;;12.80;99.90;;;;;;5047508;28;20104;-61
2021/09/08 01:45:52;;;;;;;21.05;10.40;;;12.80;99.90;;;;;;5045489;28;20499;-60
2021/09/08 01:48:18;;;;;;;21.67;10.35;;;12.70;99.90;;;;;;5046079;28;20036;-60
2021/09/08 01:50:44;;;;;;;24.38;11.60;;;;;;;;;;5047543;28;20284;-61
2021/09/08 01:53:10;;;;;;;22.80;11.13;;;12.50;99.90;;;;;;5048412;28;20021;-60
2021/09/08 01:55:35;;;;;;;23.20;10.30;;;12.30;99.90;;;;;;5049058;28;20096;-60
2021/09/08 01:58:01;;;;;;;23.80;10.95;;;12.20;99.90;;;;;;5048580;28;20052;-60
2021/09/08 02:00:27;;;;;;;19.83;10.70;;;12.20;99.90;;;;;;5034978;28;20033;-61
2021/09/08 02:02:52;;;;;;;24.35;11.55;;;12.10;99.90;;;;;;5046535;28;20431;-61
2021/09/08 02:05:18;;;;;;;22.10;11.55;;;12.00;99.90;;;;;;5040102;28;20063;-61
2021/09/08 02:07:44;;;;;;;24.98;11.02;;;11.90;99.90;;;;;;5049292;28;20036;-61
2021/09/08 02:10:11;;;;;;;25.17;11.02;;;12.00;99.90;;;;;;5046515;28;20025;-61
2021/09/08 02:12:37;;;;;;;24.13;11.68;;;12.10;99.90;;;;;;5045223;28;20375;-61
2021/09/08 02:15:04;;;;;;;24.30;11.63;;;12.00;99.90;;;;;;5044067;28;20098;-60
2021/09/08 02:17:30;;;;;;;24.65;11.70;;;12.10;99.90;;;;;;5044562;28;20029;-61
2021/09/08 02:19:56;;;;;;;23.80;10.77;;;12.00;99.90;;;;;;5037532;28;20021;-60
2021/09/08 02:22:21;;;;;;;24.73;11.30;;;12.00;99.90;;;;;;5046709;28;20029;-60
2021/09/08 02:24:47;;;;;;;25.15;11.75;;;12.00;99.90;;;;;;5047774;28;20029;-61
2021/09/08 02:27:13;;;;;;;21.92;11.70;;;12.00;99.90;;;;;;5044973;28;20051;-60
2021/09/08 02:29:38;;;;;;;28.42;11.57;;;12.00;99.90;;;;;;5046654;28;20028;-60
2021/09/08 02:32:04;;;;;;;26.50;12.40;;;12.00;99.90;;;;;;5047183;28;20111;-60
2021/09/08 02:34:30;;;;;;;24.02;11.35;;;11.90;99.90;;;;;;5045902;28;20067;-60
2021/09/08 02:36:56;;;;;;;21.60;11.25;;;11.80;99.90;;;;;;5043294;28;20481;-61
2021/09/08 02:39:22;;;;;;;25.13;11.45;;;11.80;99.90;;;;;;5047558;28;20029;-60
2021/09/08 02:41:47;;;;;;;25.17;11.20;;;11.70;99.90;;;;;;5046609;28;20029;-61
2021/09/08 02:44:13;;;;;;;25.02;12.35;;;11.70;99.90;;;;;;5043101;28;20117;-61
2021/09/08 02:46:39;;;;;;;23.05;11.00;;;11.80;99.90;;;;;;5047300;28;20709;-60
2021/09/08 02:49:05;;;;;;;22.95;11.23;;;11.80;99.90;;;;;;5047696;28;20033;-61
2021/09/08 02:51:30;;;;;;;25.27;12.40;;;11.80;99.90;;;;;;5040325;28;20059;-62
2021/09/08 02:53:56;;;;;;;25.08;12.40;;;11.70;99.90;;;;;;5047936;28;20027;-61
2021/09/08 02:56:21;;;;;;;23.60;11.27;;;11.70;99.90;;;;;;5048001;28;20025;-60
2021/09/08 02:58:47;;;;;;;27.98;12.02;;;11.70;99.90;;;;;;5047777;28;20095;-60
2021/09/08 03:01:12;;;;;;;23.63;11.48;;;11.70;99.90;;;;;;5039291;28;20029;-61
2021/09/08 03:03:38;;;;;;;28.67;11.70;;;11.70;99.90;;;;;;5047542;28;20505;-60
2021/09/08 03:06:04;;;;;;;29.13;12.65;;;11.60;99.90;;;;;;5045440;28;20061;-60
2021/09/08 03:08:30;;;;;;;27.70;12.27;;;11.50;99.90;;;;;;5047858;28;20524;-60
2021/09/08 03:10:55;;;;;;;28.50;12.00;;;11.60;99.90;;;;;;5047736;28;20044;-60
2021/09/08 03:13:21;;;;;;;26.10;12.55;;;11.70;99.90;;;;;;5047760;28;20083;-61
2021/09/08 03:15:47;;;;;;;28.42;12.18;;;11.70;99.90;;;;;;5041107;28;20036;-61
2021/09/08 03:18:13;;;;;;;29.23;12.60;;;11.70;99.90;;;;;;5047380;28;20098;-60
2021/09/08 03:20:39;;;;;;;27.48;11.85;;;11.70;99.90;;;;;;5041693;28;20116;-61
2021/09/08 03:23:05;;;;;;;29.25;12.27;;;11.70;99.90;;;;;;5048222;28;20036;-61
2021/09/08 03:25:31;;;;;;;28.38;12.45;;;11.60;99.90;;;;;;5046955;28;20599;-60
2021/09/08 03:27:56;;;;;;;27.60;13.25;;;11.50;99.90;;;;;;5047629;28;20029;-61
2021/09/08 03:30:23;;;;;;;24.92;11.90;;;11.50;99.90;;;;;;5046757;28;20392;-60
2021/09/08 03:32:48;;;;;;;28.70;11.77;;;11.50;99.90;;;;;;5045568;28;20380;-60
2021/09/08 03:35:14;;;;;;;30.33;13.15;;;11.50;99.90;;;;;;5045331;28;20096;-61
2021/09/08 03:37:39;;;;;;;43.95;14.35;;;11.60;99.90;;;;;;5045430;28;20025;-60
2021/09/08 03:40:06;;;;;;;25.67;11.85;;;11.50;99.90;;;;;;5044732;28;20017;-60
2021/09/08 03:42:33;;;;;;;25.85;12.15;;;11.50;99.90;;;;;;5051050;28;20070;-61
2021/09/08 03:44:58;;;;;;;26.15;11.70;;;11.40;99.90;;;;;;5050435;28;20492;-61
2021/09/08 03:47:24;;;;;;;26.08;12.10;;;11.40;99.90;;;;;;5043333;28;20025;-60
2021/09/08 03:49:50;;;;;;;28.30;12.77;;;11.50;99.90;;;;;;5051428;28;20033;-61
2021/09/08 03:52:17;;;;;;;29.65;13.50;;;11.40;99.90;;;;;;5049565;28;20049;-61
2021/09/08 03:54:43;;;;;;;31.55;13.93;;;11.30;99.90;;;;;;5050820;28;20040;-61
2021/09/08 03:57:09;;;;;;;31.58;13.15;;;11.30;99.90;;;;;;5050814;28;21121;-61
2021/09/08 03:59:36;;;;;;;27.77;12.77;;;11.30;99.90;;;;;;5045870;28;20036;-61
2021/09/08 04:02:02;;;;;;;28.67;13.15;;;11.40;99.90;;;;;;5044249;28;20036;-61
2021/09/08 04:04:27;;;;;;;29.67;13.52;;;11.40;99.90;;;;;;5044255;28;20021;-61
2021/09/08 04:06:53;;;;;;;28.08;13.13;;;11.30;99.90;;;;;;5045057;28;20032;-60
2021/09/08 04:09:19;;;;;;;30.63;13.57;;;11.30;99.90;;;;;;5041555;28;20028;-60
2021/09/08 04:11:45;;;;;;;28.08;13.40;;;11.20;99.90;;;;;;5050125;28;20553;-60
2021/09/08 04:14:10;;;;;;;30.75;14.05;;;11.50;99.90;;;;;;5047225;28;20043;-60
2021/09/08 04:16:36;;;;;;;29.38;13.15;;;11.50;99.90;;;;;;5047014;28;20096;-60
2021/09/08 04:19:02;;;;;;;28.80;13.35;;;11.60;99.90;;;;;;5048677;28;20462;-60
2021/09/08 04:21:27;;;;;;;29.63;13.80;;;11.60;99.90;;;;;;5044767;28;20033;-60
2021/09/08 04:23:53;;;;;;;29.98;13.55;;;11.40;99.90;;;;;;5045636;28;20028;-60
2021/09/08 04:26:19;;;;;;;33.75;13.18;;;11.60;99.90;;;;;;5044855;28;20049;-61
2021/09/08 04:28:45;;;;;;;31.58;14.00;;;11.50;99.90;;;;;;5049717;28;20029;-60
2021/09/08 04:31:11;;;;;;;31.85;14.02;;;11.70;99.90;;;;;;5048928;28;20123;-60
2021/09/08 04:33:36;;;;;;;35.55;13.77;;;11.90;99.90;;;;;;5049439;28;20103;-62
2021/09/08 04:36:02;;;;;;;33.92;13.88;;;11.90;99.90;;;;;;5045607;28;20458;-60
2021/09/08 04:38:28;;;;;;;29.17;13.45;;;11.90;99.90;;;;;;5045355;28;20043;-61
2021/09/08 04:40:54;;;;;;;28.90;13.02;;;12.00;99.90;;;;;;5049024;28;20024;-60
2021/09/08 04:43:20;;;;;;;30.88;13.57;;;11.90;99.90;;;;;;5046427;28;20025;-60
2021/09/08 04:45:46;;;;;;;32.28;14.20;;;12.20;99.90;;;;;;5049371;28;20032;-60
2021/09/08 04:48:11;;;;;;;29.25;13.60;;;12.20;99.90;;;;;;5046392;28;20373;-60
2021/09/08 04:50:37;;;;;;;32.60;13.50;;;12.20;99.90;;;;;;5046397;28;20040;-61
2021/09/08 04:53:03;;;;;;;32.30;14.15;;;12.30;99.90;;;;;;5046968;28;20053;-61
2021/09/08 04:55:28;;;;;;;31.38;14.93;;;12.10;99.90;;;;;;5048263;28;20417;-61
2021/09/08 04:57:54;;;;;;;35.17;14.10;;;12.00;99.90;;;;;;5047115;28;20021;-60
2021/09/08 05:00:19;;;;;;;27.85;13.90;;;12.10;99.90;;;;;;5045973;28;20071;-60
2021/09/08 05:02:45;;;;;;;30.60;14.10;;;11.90;99.90;;;;;;5045675;28;20040;-60
2021/09/08 05:05:11;;;;;;;28.13;13.55;;;11.80;99.90;;;;;;5045017;28;20455;-61
2021/09/08 05:07:36;;;;;;;32.17;14.18;;;11.70;99.90;;;;;;5042676;28;20113;-61
2021/09/08 05:10:03;;;;;;;33.22;14.18;;;11.70;99.90;;;;;;5046329;28;20111;-60
2021/09/08 05:12:28;;;;;;;29.52;13.70;;;11.70;99.90;;;;;;5039857;28;20405;-60
2021/09/08 05:14:54;;;;;;;35.50;14.43;;;11.60;99.90;;;;;;5048899;28;20029;-60
2021/09/08 05:17:19;;;;;;;30.55;13.60;;;11.80;99.90;;;;;;5044389;28;20027;-60
2021/09/08 05:19:45;;;;;;;32.08;14.18;;;11.80;99.90;;;;;;5047209;28;20087;-60
2021/09/08 05:22:10;;;;;;;30.95;14.35;;;11.80;99.90;;;;;;5046208;28;20098;-60
2021/09/08 05:24:36;;;;;;;31.25;14.40;;;11.90;99.90;;;;;;5046222;28;20021;-60
2021/09/08 05:27:02;;;;;;;28.58;14.43;;;11.90;99.90;;;;;;5047174;28;20029;-60
2021/09/08 05:29:27;;;;;;;27.48;13.50;;;11.90;99.90;;;;;;5042597;28;20455;-61
2021/09/08 05:31:53;;;;;;;29.73;13.88;;;11.90;99.90;;;;;;5044797;28;20480;-61
2021/09/08 05:34:19;;;;;;;31.40;14.82;;;11.90;99.90;;;;;;5042836;28;20453;-60
2021/09/08 05:36:44;;;;;;;32.92;14.30;;;11.90;99.90;;;;;;5045745;28;20025;-61
2021/09/08 05:39:10;;;;;;;32.40;13.90;;;11.90;99.90;;;;;;5046201;28;20052;-61
2021/09/08 05:41:35;;;;;;;33.83;14.77;;;12.00;99.90;;;;;;5041219;28;20044;-60
2021/09/08 05:44:01;;;;;;;28.88;14.10;;;12.00;99.90;;;;;;5045438;28;20029;-61
2021/09/08 05:46:27;;;;;;;31.88;15.07;;;12.00;99.90;;;;;;5037596;28;20509;-61
2021/09/08 05:48:52;;;;;;;26.77;13.45;;;12.10;99.90;;;;;;5046016;28;20029;-60
2021/09/08 05:51:18;;;;;;;30.25;14.43;;;12.40;99.90;;;;;;5042133;28;20113;-59
2021/09/08 05:53:43;;;;;;;31.65;14.32;;;12.40;99.90;;;;;;5045735;28;20525;-61
2021/09/08 05:56:09;;;;;;;33.53;14.68;;;12.40;99.90;;;;;;5041148;28;20025;-60
2021/09/08 05:58:35;;;;;;;35.03;14.85;;;12.50;99.90;;;;;;5034147;28;20021;-61
2021/09/08 06:01:00;;;;;;;30.67;14.55;;;12.50;99.90;;;;;;5045634;28;20036;-61
2021/09/08 06:03:26;;;;;;;32.08;14.50;;;12.60;99.90;;;;;;5042044;28;20068;-61
2021/09/08 06:05:51;;;;;;;28.88;13.30;;;12.70;99.90;;;;;;5042763;28;20119;-60
2021/09/08 06:08:17;;;;;;;31.50;15.05;;;12.80;99.90;;;;;;5043672;28;20067;-61
2021/09/08 06:10:43;;;;;;;35.75;14.15;;;12.90;99.90;;;;;;5044487;28;20037;-60
2021/09/08 06:13:09;;;;;;;28.25;14.05;;;13.00;99.90;;;;;;5044201;28;20039;-60
2021/09/08 06:15:34;;;;;;;29.75;13.80;;;13.10;99.90;;;;;;5045768;28;20024;-61
2021/09/08 06:18:02;;;;;;;30.40;14.05;;;13.30;99.90;;;;;;5043784;28;20516;-60
2021/09/08 06:20:29;;;;;;;29.45;13.93;;;13.30;99.90;;;;;;5046264;28;20240;-61
2021/09/08 06:22:55;;;;;;;27.40;13.55;;;13.30;99.90;;;;;;5042547;28;20028;-60
2021/09/08 06:25:21;;;;;;;25.98;13.35;;;13.60;99.90;;;;;;5040381;28;20519;-60
2021/09/08 06:27:47;;;;;;;28.13;13.35;;;13.80;99.90;;;;;;5044378;28;20033;-60
2021/09/08 06:30:12;;;;;;;27.23;12.75;;;13.90;99.90;;;;;;5047734;28;20052;-60
2021/09/08 06:32:38;;;;;;;29.08;13.10;;;13.90;99.90;;;;;;5044222;28;20036;-60
2021/09/08 06:35:04;;;;;;;26.98;13.85;;;14.10;99.90;;;;;;5035417;28;20021;-60
2021/09/08 06:37:30;;;;;;;25.98;13.38;;;14.10;99.90;;;;;;5031619;28;20060;-60
2021/09/08 06:39:55;;;;;;;29.15;13.82;;;14.30;99.90;;;;;;5042909;28;20039;-60
2021/09/08 06:42:21;;;;;;;24.75;12.77;;;14.50;99.90;;;;;;5036520;28;20036;-60
2021/09/08 06:44:53;;;;;;;25.65;12.68;;;14.60;99.90;;;;;;5032503;28;20064;-60
2021/09/08 06:47:22;;;;;;;26.08;12.00;;;14.80;99.90;;;;;;5033404;28;20051;-60
2021/09/08 06:49:49;;;;;;;28.60;12.25;;;14.90;99.90;;;;;;5034686;28;20029;-60
2021/09/08 06:52:15;;;;;;;23.95;11.38;;;15.10;99.90;;;;;;5038954;28;20056;-60
2021/09/08 06:54:41;;;;;;;26.02;11.38;;;15.20;99.90;;;;;;5049076;28;20064;-61
2021/09/08 06:57:06;;;;;;;25.52;12.10;;;15.40;99.90;;;;;;5049216;28;20021;-61
2021/09/08 06:59:32;;;;;;;24.58;11.05;;;15.50;99.90;;;;;;5049226;28;20025;-61
2021/09/08 07:01:58;;;;;;;25.55;12.15;;;15.80;99.90;;;;;;5050229;28;20028;-60
2021/09/08 07:04:24;;;;;;;23.77;10.55;;;15.90;99.90;;;;;;5049007;28;20029;-61
2021/09/08 07:06:50;;;;;;;21.15;10.77;;;16.10;99.90;;;;;;5049369;28;20071;-60
2021/09/08 07:09:16;;;;;;;21.15;10.90;;;16.30;99.90;;;;;;5048837;28;20361;-60
2021/09/08 07:11:41;;;;;;;25.70;10.00;;;16.50;99.90;;;;;;5048941;28;20163;-60
2021/09/08 07:14:07;;;;;;;23.35;11.32;;;16.60;99.90;;;;;;5049173;28;20651;-60
2021/09/08 07:16:32;;;;;;;21.20;10.45;;;16.80;99.90;;;;;;5049235;28;20021;-60
2021/09/08 07:18:58;;;;;;;20.80;9.80;;;16.90;99.90;;;;;;5038812;28;20056;-60
2021/09/08 07:21:24;;;;;;;20.80;9.13;;;17.10;99.90;;;;;;5041533;28;20057;-60
2021/09/08 07:23:49;;;;;;;19.80;9.77;;;17.30;99.90;;;;;;5042533;28;20099;-60
2021/09/08 07:26:15;;;;;;;19.75;9.93;;;17.40;99.90;;;;;;5040231;28;20087;-60
2021/09/08 07:28:41;;;;;;;18.48;8.68;;;17.60;99.90;;;;;;5038187;28;20029;-60
2021/09/08 07:31:06;;;;;;;18.75;9.75;;;17.70;99.90;;;;;;5037573;28;20035;-60
2021/09/08 07:33:32;;;;;;;18.63;9.65;;;17.90;99.90;;;;;;5037686;28;20112;-61
2021/09/08 07:35:58;;;;;;;20.85;9.77;;;18.10;99.90;;;;;;5039280;28;20555;-61
2021/09/08 07:38:26;;;;;;;16.33;8.85;;;18.30;99.90;;;;;;5039044;28;20026;-61
2021/09/08 07:40:51;;;;;;;20.38;9.48;;;18.30;99.90;;;;;;5041678;28;20025;-60
2021/09/08 07:43:20;;;;;;;23.27;9.23;;;18.50;99.90;;;;;;5039362;28;20047;-60
2021/09/08 07:45:47;;;;;;;20.67;9.75;;;18.60;99.90;;;;;;5039242;28;20025;-61
2021/09/08 07:48:13;;;;;;;16.65;8.60;;;18.80;99.90;;;;;;5035902;28;20017;-61
2021/09/08 07:50:38;;;;;;;19.23;8.80;;;18.90;99.90;;;;;;5035157;28;20565;-61
2021/09/08 07:53:08;;;;;;;17.80;8.73;;;19.10;99.90;;;;;;5037040;28;20032;-61
2021/09/08 07:55:35;;;;;;;;;;;19.20;99.90;;;;;;5042154;28;20033;-60
2021/09/08 07:58:00;;;;;;;19.42;9.63;;;19.30;99.90;;;;;;5042339;28;19919;-60
2021/09/08 08:00:26;;;;;;;18.50;9.32;;;19.40;99.90;;;;;;5039615;28;20029;-60
2021/09/08 08:02:52;;;;;;;16.23;8.75;;;19.60;99.90;;;;;;5040286;28;20086;-61
2021/09/08 08:05:19;;;;;;;16.55;9.00;;;19.80;99.90;;;;;;5043213;28;20067;-61
2021/09/08 08:07:46;;;;;;;16.48;8.93;;;20.00;99.90;;;;;;5038226;28;20044;-61
2021/09/08 08:10:13;;;;;;;21.55;8.32;;;20.10;99.90;;;;;;5038084;28;20036;-60
2021/09/08 08:12:39;;;;;;;16.05;8.52;;;20.20;99.90;;;;;;5039386;28;20036;-60
2021/09/08 08:15:07;;;;;;;20.98;9.05;;;20.30;99.90;;;;;;5036644;28;20427;-61
2021/09/08 08:17:33;;;;;;;18.13;9.40;;;20.40;99.90;;;;;;5034904;28;20051;-60
2021/09/08 08:20:00;;;;;;;16.17;8.50;;;20.50;99.90;;;;;;5042728;28;20432;-61
2021/09/08 08:22:26;;;;;;;18.73;8.90;;;20.90;99.90;;;;;;5048404;28;20021;-61
2021/09/08 08:24:51;;;;;;;18.50;8.77;;;21.50;99.90;;;;;;5045780;28;20137;-61
2021/09/08 08:27:18;;;;;;;17.02;7.82;;;22.10;99.90;;;;;;5043033;28;20489;-60
2021/09/08 08:29:44;;;;;;;15.77;7.78;;;22.80;99.90;;;;;;5043423;28;20025;-61
2021/09/08 08:32:10;;;;;;;15.15;7.80;;;23.50;99.90;;;;;;5049955;28;20529;-61
2021/09/08 08:34:35;;;;;;;14.50;7.70;;;24.30;99.90;;;;;;5036137;28;20029;-60
2021/09/08 08:37:01;;;;;;;17.50;7.82;;;24.40;99.90;;;;;;5036971;28;20017;-61
2021/09/08 08:39:26;;;;;;;14.52;7.88;;;24.90;99.90;;;;;;5039836;28;20389;-61
2021/09/08 08:41:52;;;;;;;17.08;8.25;;;25.30;99.90;;;;;;5049756;28;20019;-61
2021/09/08 08:44:23;;;;;;;14.55;8.18;;;25.60;99.90;;;;;;5049062;28;20024;-61
2021/09/08 08:46:53;;;;;;;16.77;8.80;;;25.60;99.90;;;;;;5042434;28;20036;-61
2021/09/08 08:49:20;;;;;;;14.88;7.88;;;25.80;99.90;;;;;;5043606;28;20124;-61
2021/09/08 08:51:47;;;;;;;13.88;7.43;;;26.20;99.50;;;;;;5050996;28;20031;-61
2021/09/08 08:54:12;;;;;;;14.90;7.35;;;25.90;99.80;;;;;;5050964;28;20033;-61
2021/09/08 08:56:38;;;;;;;13.48;7.60;;;26.10;99.90;;;;;;5045877;28;20025;-61
2021/09/08 08:59:04;;;;;;;15.60;8.07;;;26.40;99.30;;;;;;5048849;28;20021;-60
2021/09/08 09:01:31;;;;;;;16.58;8.35;;;26.60;98.50;;;;;;5046704;28;20354;-62
2021/09/08 09:04:09;;;;;;;13.38;7.38;;;27.30;98.30;;;;;;5047095;28;20503;-61
2021/09/08 09:06:41;;;;;;;12.55;7.38;;;28.40;99.30;;;;;;5044223;28;20021;-61
2021/09/08 09:09:18;;;;;;;13.20;7.75;;;28.90;97.50;;;;;;5050359;28;20026;-61
2021/09/08 09:11:48;;;;;;;16.10;8.20;;;28.40;98.20;;;;;;5047473;28;20086;-61
2021/09/08 09:14:15;;;;;;;15.70;8.10;;;28.80;97.70;;;;;;5045456;28;20033;-61
2021/09/08 09:16:42;;;;;;;16.15;8.07;;;28.50;98.40;;;;;;5044487;28;20536;-61
2021/09/08 09:19:12;;;;;;;14.57;7.50;;;28.70;98.00;;;;;;5049099;28;20468;-61
2021/09/08 09:21:39;;;;;;;14.05;8.07;;;28.90;97.70;;;;;;5048030;28;20033;-61
2021/09/08 09:24:06;;;;;;;14.18;7.57;;;29.10;96.80;;;;;;5039343;28;20111;-62
2021/09/08 09:26:33;;;;;;;13.82;7.55;;;29.30;97.00;;;;;;5044319;28;20029;-61
2021/09/08 09:29:10;;;;;;;14.43;7.30;;;29.10;96.50;;;;;;5049726;28;20547;-61
2021/09/08 09:31:56;;;;;;;13.15;7.53;;;28.90;96.50;;;;;;5050704;28;20016;-61
2021/09/08 09:34:23;;;;;;;15.40;7.57;;;29.30;95.60;;;;;;5046169;28;20043;-61
2021/09/08 09:36:54;;;;;;;14.25;7.82;;;30.00;95.50;;;;;;5048996;28;20025;-61
2021/09/08 09:39:21;;;;;;;13.85;7.38;;;30.00;95.20;;;;;;5041324;28;20025;-61
2021/09/08 09:41:47;;;;;;;14.32;7.40;;;30.30;95.50;;;;;;5048397;28;20017;-61
2021/09/08 09:44:15;;;;;;;12.18;7.20;;;30.20;93.60;;;;;;5044762;28;20484;-61
2021/09/08 09:46:43;;;;;;;12.38;7.15;;;29.50;93.70;;;;;;5042359;28;20025;-61
2021/09/08 09:49:10;;;;;;;14.05;6.90;;;29.40;93.50;;;;;;5044989;28;20060;-61
2021/09/08 09:51:36;;;;;;;11.25;7.03;;;29.50;93.00;;;;;;5044119;28;20491;-62
2021/09/08 09:54:02;;;;;;;12.73;7.40;;;29.50;93.70;;;;;;5045079;28;20029;-61
2021/09/08 09:56:28;;;;;;;13.40;6.97;;;30.00;93.30;;;;;;5049436;28;20021;-62
2021/09/08 09:58:53;;;;;;;12.88;6.43;;;30.00;92.40;;;;;;5047451;28;20037;-62
2021/09/08 10:01:20;;;;;;;11.60;6.55;;;30.10;91.40;;;;;;5045405;28;20040;-61
2021/09/08 10:03:46;;;;;;;12.52;6.88;;;30.00;91.70;;;;;;5043111;28;20083;-61
2021/09/08 10:06:13;;;;;;;10.85;6.18;;;30.50;92.80;;;;;;5044100;28;20032;-59
2021/09/08 10:08:43;;;;;;;12.75;6.47;;;30.80;91.20;;;;;;5047104;28;20037;-59
2021/09/08 10:11:12;;;;;;;14.98;6.88;;;30.80;91.50;;;;;;5042855;28;20104;-59
2021/09/08 10:13:45;;;;;;;11.07;6.28;;;30.80;91.70;;;;;;5045604;28;20112;-60
2021/09/08 10:16:12;;;;;;;11.15;6.43;;;30.80;91.10;;;;;;5040883;28;20041;-59
2021/09/08 10:18:41;;;;;;;12.63;6.47;;;30.70;90.80;;;;;;5047203;28;20048;-60
2021/09/08 10:21:11;;;;;;;13.23;6.45;;;31.20;91.00;;;;;;5041818;28;20028;-59
2021/09/08 10:23:43;;;;;;;11.65;6.32;;;31.60;90.10;;;;;;5040331;28;20036;-59
2021/09/08 10:26:15;;;;;;;13.63;7.03;;;32.20;93.70;;;;;;5037992;28;20039;-59
2021/09/08 10:28:43;;;;;;;10.70;6.35;;;32.30;81.20;;;;;;5038808;28;20052;-59
2021/09/08 10:31:10;;;;;;;12.13;5.90;;;32.40;79.60;;;;;;5035962;28;20036;-59
2021/09/08 10:33:38;;;;;;;10.60;6.03;;;31.80;76.10;;;;;;5036093;28;20036;-59
2021/09/08 10:36:05;;;;;;;10.93;5.40;;;31.10;79.30;;;;;;5041676;28;20025;-60
2021/09/08 10:38:32;;;;;;;9.68;5.45;;;31.10;78.30;;;;;;5046296;28;20354;-60
2021/09/08 10:40:58;;;;;;;13.27;5.97;;;30.80;79.40;;;;;;5044332;28;20037;-60
2021/09/08 10:43:28;;;;;;;11.98;6.07;;;31.50;77.10;;;;;;5036478;28;20044;-60
2021/09/08 10:45:54;;;;;;;12.88;5.15;;;31.70;77.10;;;;;;5042251;28;20028;-60
2021/09/08 10:48:36;;;;;;;10.15;5.28;;;31.20;75.90;;;;;;5040448;28;20036;-60
2021/09/08 10:51:02;;;;;;;9.93;5.22;;;31.90;75.70;;;;;;5038768;28;20043;-60
2021/09/08 10:53:30;;;;;;;11.30;5.18;;;32.00;76.30;;;;;;5039781;28;20120;-60
2021/09/08 10:55:57;;;;;;;9.27;5.25;;;32.30;74.40;;;;;;5036965;28;20033;-60
2021/09/08 10:58:22;;;;;;;8.88;4.93;;;32.30;72.60;;;;;;5047620;28;20021;-60
2021/09/08 11:00:51;;;;;;;9.73;5.25;;;32.20;74.40;;;;;;5034883;28;20409;-59
2021/09/08 11:03:17;;;;;;;10.47;5.40;;;32.30;72.70;;;;;;5036640;28;20021;-60
2021/09/08 11:05:50;;;;;;;10.70;5.18;;;32.60;72.60;;;;;;5035969;28;20128;-59
2021/09/08 11:08:30;;;;;;;11.85;5.75;;;32.90;74.20;;;;;;5036306;28;20024;-60
2021/09/08 11:11:08;;;;;;;9.25;4.07;;;33.30;74.50;;;;;;5032339;28;20029;-60
2021/09/08 11:13:34;;;;;;;9.43;4.60;;;32.80;73.10;;;;;;5032106;28;20029;-60
2021/09/08 11:16:00;;;;;;;13.60;5.32;;;32.90;74.50;;;;;;5037680;28;20166;-59
2021/09/08 11:18:35;;;;;;;11.65;5.40;;;33.50;73.40;;;;;;5037232;28;20041;-60
2021/09/08 11:21:03;;;;;;;10.27;5.43;;;33.40;74.60;;;;;;5042857;28;20079;-60
2021/09/08 11:23:30;;;;;;;8.82;5.00;;;33.60;75.60;;;;;;5033827;28;20388;-60
2021/09/08 11:26:05;;;;;;;12.27;5.65;;;33.90;72.90;;;;;;5039191;28;20025;-60
2021/09/08 11:28:32;;;;;;;9.65;5.32;;;34.30;72.20;;;;;;5034155;28;20029;-61
2021/09/08 11:30:58;;;;;;;8.90;4.68;;;34.50;69.30;;;;;;5034020;28;20057;-60
2021/09/08 11:33:32;;;;;;;8.60;4.95;;;34.80;68.40;;;;;;5039509;28;20021;-60
2021/09/08 11:35:59;;;;;;;8.80;4.78;;;34.70;66.70;;;;;;5038168;28;20539;-60
2021/09/08 11:38:28;;;;;;;10.57;6.38;;;34.70;67.60;;;;;;5038561;28;20028;-60
2021/09/08 11:40:59;;;;;;;11.38;6.03;;;34.90;66.50;;;;;;5034339;28;20029;-60
2021/09/08 11:43:34;;;;;;;9.98;5.47;;;35.20;66.80;;;;;;5039922;28;20057;-61
2021/09/08 11:46:33;;;;;;;11.32;5.93;;;35.70;67.70;;;;;;5037393;28;20059;-61
2021/09/08 11:49:05;;;;;;;10.63;5.63;;;35.70;66.00;;;;;;5037143;28;20742;-60
2021/09/08 11:51:35;;;;;;;8.40;4.65;;;35.40;67.30;;;;;;5031029;28;20588;-60
2021/09/08 11:54:03;;;;;;;9.63;5.07;;;35.80;63.20;;;;;;5035219;28;20037;-61
2021/09/08 11:56:29;;;;;;;10.07;5.20;;;35.80;64.90;;;;;;5034490;28;20090;-60
2021/09/08 11:59:05;;;;;;;9.57;5.57;;;36.10;64.60;;;;;;5038209;28;20025;-60
2021/09/08 12:01:35;;;;;;;11.00;5.28;;;35.90;65.20;;;;;;5036907;28;20083;-60
2021/09/08 12:04:02;;;;;;;11.45;6.03;;;36.50;62.80;;;;;;5042036;28;20508;-60
2021/09/08 12:06:33;;;;;;;11.38;5.80;;;36.30;64.30;;;;;;5036438;28;20046;-59
2021/09/08 12:09:10;;;;;;;11.07;6.00;;;35.50;64.50;;;;;;5040757;28;20440;-60
2021/09/08 12:11:46;;;;;;;10.18;5.60;;;35.80;64.70;;;;;;5039450;28;20053;-60
2021/09/08 12:14:16;;;;;;;10.57;4.97;;;36.10;63.80;;;;;;5046360;28;20033;-60
2021/09/08 12:16:41;;;;;;;12.48;5.57;;;36.20;62.90;;;;;;5043445;28;20013;-60
2021/09/08 12:19:17;;;;;;;12.80;5.15;;;35.60;63.20;;;;;;5043023;28;20048;-61
2021/09/08 12:21:44;;;;;;;10.48;4.80;;;36.10;63.60;;;;;;5041898;28;20487;-61
2021/09/08 12:24:25;;;;;;;7.97;4.43;;;36.40;61.20;;;;;;5039116;28;20120;-60
2021/09/08 12:26:51;;;;;;;8.50;4.82;;;36.00;60.70;;;;;;5042870;28;20024;-60
2021/09/08 12:29:17;;;;;;;9.30;4.93;;;36.50;61.60;;;;;;5035615;28;20371;-60
2021/09/08 12:31:52;;;;;;;10.13;5.30;;;36.80;60.50;;;;;;5043110;28;20063;-62